sensor_id;sensor_type;location;lat;lon;timestamp;P1;durP1;ratioP1;P2;durP2;ratioP2
26774;SDS011;14362;51.902;7.626;2022-08-14T00:02:51;8.43;;;6.35;;
26774;SDS011;14362;51.902;7.626;2022-08-14T00:06:52;7.28;;;6.57;;
26774;SDS011;14362;51.902;7.626;2022-08-14T00:10:53;6.95;;;6.35;;
26774;SDS011;14362;51.902;7.626;2022-08-14T00:14:55;10.30;;;6.80;;
26774;SDS011;14362;51.902;7.626;2022-08-14T00:18:58;6.60;;;6.00;;
26774;SDS011;14362;51.902;7.626;2022-08-14T00:23:00;6.45;;;5.85;;
26774;SDS011;14362;51.902;7.626;2022-08-14T00:27:01;7.35;;;6.65;;
26774;SDS011;14362;51.902;7.626;2022-08-14T00:31:03;7.40;;;6.53;;
26774;SDS011;14362;51.902;7.626;2022-08-14T00:35:08;10.50;;;7.05;;
26774;SDS011;14362;51.902;7.626;2022-08-14T00:39:11;7.20;;;6.50;;
26774;SDS011;14362;51.902;7.626;2022-08-14T00:43:14;7.30;;;6.60;;
26774;SDS011;14362;51.902;7.626;2022-08-14T00:47:16;9.07;;;6.38;;
26774;SDS011;14362;51.902;7.626;2022-08-14T00:51:20;7.10;;;6.40;;
26774;SDS011;14362;51.902;7.626;2022-08-14T00:55:22;7.57;;;6.50;;
26774;SDS011;14362;51.902;7.626;2022-08-14T00:59:25;8.13;;;7.43;;
26774;SDS011;14362;51.902;7.626;2022-08-14T01:03:27;7.65;;;6.95;;
26774;SDS011;14362;51.902;7.626;2022-08-14T01:07:30;7.10;;;6.40;;
26774;SDS011;14362;51.902;7.626;2022-08-14T01:11:32;10.20;;;7.68;;
26774;SDS011;14362;51.902;7.626;2022-08-14T01:15:33;7.47;;;6.78;;
26774;SDS011;14362;51.902;7.626;2022-08-14T01:19:36;7.80;;;7.10;;
26774;SDS011;14362;51.902;7.626;2022-08-14T01:23:57;7.68;;;6.97;;
26774;SDS011;14362;51.902;7.626;2022-08-14T01:27:58;10.43;;;7.88;;
26774;SDS011;14362;51.902;7.626;2022-08-14T01:32:00;7.65;;;6.95;;
26774;SDS011;14362;51.902;7.626;2022-08-14T01:36:03;15.63;;;7.80;;
26774;SDS011;14362;51.902;7.626;2022-08-14T01:40:07;7.85;;;7.15;;
26774;SDS011;14362;51.902;7.626;2022-08-14T01:44:10;8.00;;;6.75;;
26774;SDS011;14362;51.902;7.626;2022-08-14T01:48:14;7.85;;;7.05;;
26774;SDS011;14362;51.902;7.626;2022-08-14T01:52:16;8.23;;;7.43;;
26774;SDS011;14362;51.902;7.626;2022-08-14T01:56:19;7.75;;;6.97;;
26774;SDS011;14362;51.902;7.626;2022-08-14T02:00:21;8.27;;;7.47;;
26774;SDS011;14362;51.902;7.626;2022-08-14T02:04:24;8.18;;;7.35;;
26774;SDS011;14362;51.902;7.626;2022-08-14T02:08:27;8.00;;;7.25;;
26774;SDS011;14362;51.902;7.626;2022-08-14T02:12:30;8.90;;;7.65;;
26774;SDS011;14362;51.902;7.626;2022-08-14T02:16:32;9.80;;;7.47;;
26774;SDS011;14362;51.902;7.626;2022-08-14T02:20:38;8.38;;;7.15;;
26774;SDS011;14362;51.902;7.626;2022-08-14T02:24:39;7.88;;;7.07;;
26774;SDS011;14362;51.902;7.626;2022-08-14T02:28:42;8.45;;;7.18;;
26774;SDS011;14362;51.902;7.626;2022-08-14T02:32:44;7.97;;;7.27;;
26774;SDS011;14362;51.902;7.626;2022-08-14T02:36:46;9.43;;;8.52;;
26774;SDS011;14362;51.902;7.626;2022-08-14T02:44:52;8.52;;;7.72;;
26774;SDS011;14362;51.902;7.626;2022-08-14T02:48:54;9.02;;;7.95;;
26774;SDS011;14362;51.902;7.626;2022-08-14T02:52:55;8.73;;;7.80;;
26774;SDS011;14362;51.902;7.626;2022-08-14T02:56:57;8.80;;;7.93;;
26774;SDS011;14362;51.902;7.626;2022-08-14T03:01:00;9.25;;;7.90;;
26774;SDS011;14362;51.902;7.626;2022-08-14T03:05:02;8.63;;;7.82;;
26774;SDS011;14362;51.902;7.626;2022-08-14T03:09:04;8.35;;;7.60;;
26774;SDS011;14362;51.902;7.626;2022-08-14T03:13:06;12.48;;;7.93;;
26774;SDS011;14362;51.902;7.626;2022-08-14T03:17:10;9.00;;;8.20;;
26774;SDS011;14362;51.902;7.626;2022-08-14T03:21:15;8.48;;;7.68;;
26774;SDS011;14362;51.902;7.626;2022-08-14T03:29:22;8.90;;;8.10;;
26774;SDS011;14362;51.902;7.626;2022-08-14T03:33:25;9.32;;;7.50;;
26774;SDS011;14362;51.902;7.626;2022-08-14T03:37:28;8.90;;;8.10;;
26774;SDS011;14362;51.902;7.626;2022-08-14T03:41:30;8.80;;;8.00;;
26774;SDS011;14362;51.902;7.626;2022-08-14T03:45:32;9.20;;;8.20;;
26774;SDS011;14362;51.902;7.626;2022-08-14T03:49:36;9.10;;;8.05;;
26774;SDS011;14362;51.902;7.626;2022-08-14T03:53:39;9.57;;;8.63;;
26774;SDS011;14362;51.902;7.626;2022-08-14T03:57:41;9.43;;;8.60;;
26774;SDS011;14362;51.902;7.626;2022-08-14T04:01:44;7.82;;;7.20;;
26774;SDS011;14362;51.902;7.626;2022-08-14T04:05:49;10.15;;;8.38;;
26774;SDS011;14362;51.902;7.626;2022-08-14T04:09:51;10.23;;;9.07;;
26774;SDS011;14362;51.902;7.626;2022-08-14T04:13:52;9.27;;;8.38;;
26774;SDS011;14362;51.902;7.626;2022-08-14T04:17:54;9.10;;;8.30;;
26774;SDS011;14362;51.902;7.626;2022-08-14T04:21:57;9.68;;;8.75;;
26774;SDS011;14362;51.902;7.626;2022-08-14T04:25:58;8.95;;;8.05;;
26774;SDS011;14362;51.902;7.626;2022-08-14T04:30:04;12.35;;;8.48;;
26774;SDS011;14362;51.902;7.626;2022-08-14T04:34:06;9.40;;;8.50;;
26774;SDS011;14362;51.902;7.626;2022-08-14T04:38:09;9.63;;;8.70;;
26774;SDS011;14362;51.902;7.626;2022-08-14T04:47:02;10.15;;;8.48;;
26774;SDS011;14362;51.902;7.626;2022-08-14T04:51:21;9.00;;;8.20;;
26774;SDS011;14362;51.902;7.626;2022-08-14T04:55:26;9.63;;;8.65;;
26774;SDS011;14362;51.902;7.626;2022-08-14T04:59:27;9.70;;;8.57;;
26774;SDS011;14362;51.902;7.626;2022-08-14T05:03:29;9.70;;;8.07;;
26774;SDS011;14362;51.902;7.626;2022-08-14T05:07:32;8.10;;;7.40;;
26774;SDS011;14362;51.902;7.626;2022-08-14T05:11:34;8.90;;;8.00;;
26774;SDS011;14362;51.902;7.626;2022-08-14T05:15:36;8.93;;;8.13;;
26774;SDS011;14362;51.902;7.626;2022-08-14T05:19:39;8.90;;;8.00;;
26774;SDS011;14362;51.902;7.626;2022-08-14T05:23:40;9.55;;;8.38;;
26774;SDS011;14362;51.902;7.626;2022-08-14T05:27:43;9.32;;;8.48;;
26774;SDS011;14362;51.902;7.626;2022-08-14T05:31:44;9.15;;;8.23;;
26774;SDS011;14362;51.902;7.626;2022-08-14T05:35:46;9.63;;;8.73;;
26774;SDS011;14362;51.902;7.626;2022-08-14T05:39:49;9.70;;;8.77;;
26774;SDS011;14362;51.902;7.626;2022-08-14T05:43:52;9.68;;;8.43;;
26774;SDS011;14362;51.902;7.626;2022-08-14T05:47:54;14.55;;;9.35;;
26774;SDS011;14362;51.902;7.626;2022-08-14T05:51:55;9.00;;;8.20;;
26774;SDS011;14362;51.902;7.626;2022-08-14T05:55:56;8.85;;;7.93;;
26774;SDS011;14362;51.902;7.626;2022-08-14T06:00:00;9.07;;;8.27;;
26774;SDS011;14362;51.902;7.626;2022-08-14T06:04:01;8.68;;;7.78;;
26774;SDS011;14362;51.902;7.626;2022-08-14T06:08:03;8.95;;;8.05;;
26774;SDS011;14362;51.902;7.626;2022-08-14T06:12:05;8.75;;;7.90;;
26774;SDS011;14362;51.902;7.626;2022-08-14T06:16:09;8.52;;;7.70;;
26774;SDS011;14362;51.902;7.626;2022-08-14T06:20:11;8.48;;;7.78;;
26774;SDS011;14362;51.902;7.626;2022-08-14T06:24:13;8.20;;;7.43;;
26774;SDS011;14362;51.902;7.626;2022-08-14T06:28:15;8.27;;;7.55;;
26774;SDS011;14362;51.902;7.626;2022-08-14T06:32:18;8.68;;;7.93;;
26774;SDS011;14362;51.902;7.626;2022-08-14T06:36:19;9.27;;;7.57;;
26774;SDS011;14362;51.902;7.626;2022-08-14T06:40:22;8.52;;;7.60;;
26774;SDS011;14362;51.902;7.626;2022-08-14T06:44:26;8.38;;;7.53;;
26774;SDS011;14362;51.902;7.626;2022-08-14T06:48:29;8.80;;;8.00;;
26774;SDS011;14362;51.902;7.626;2022-08-14T06:52:30;8.77;;;8.00;;
26774;SDS011;14362;51.902;7.626;2022-08-14T06:56:32;9.63;;;7.75;;
26774;SDS011;14362;51.902;7.626;2022-08-14T07:00:33;7.88;;;7.18;;
26774;SDS011;14362;51.902;7.626;2022-08-14T07:04:36;8.43;;;7.50;;
26774;SDS011;14362;51.902;7.626;2022-08-14T07:08:55;8.52;;;7.70;;
26774;SDS011;14362;51.902;7.626;2022-08-14T07:12:56;8.07;;;7.38;;
26774;SDS011;14362;51.902;7.626;2022-08-14T07:16:58;7.78;;;6.97;;
26774;SDS011;14362;51.902;7.626;2022-08-14T07:21:01;8.25;;;7.50;;
26774;SDS011;14362;51.902;7.626;2022-08-14T07:25:05;9.10;;;8.20;;
26774;SDS011;14362;51.902;7.626;2022-08-14T07:29:06;8.13;;;7.38;;
26774;SDS011;14362;51.902;7.626;2022-08-14T07:33:08;10.68;;;9.57;;
26774;SDS011;14362;51.902;7.626;2022-08-14T07:37:11;7.95;;;7.18;;
26774;SDS011;14362;51.902;7.626;2022-08-14T07:41:13;8.80;;;7.20;;
26774;SDS011;14362;51.902;7.626;2022-08-14T07:45:14;8.00;;;7.30;;
26774;SDS011;14362;51.902;7.626;2022-08-14T07:49:16;7.68;;;6.97;;
26774;SDS011;14362;51.902;7.626;2022-08-14T07:53:20;7.83;;;7.00;;
26774;SDS011;14362;51.902;7.626;2022-08-14T07:57:22;8.27;;;7.57;;
26774;SDS011;14362;51.902;7.626;2022-08-14T08:01:26;7.43;;;6.72;;
26774;SDS011;14362;51.902;7.626;2022-08-14T08:05:29;8.75;;;6.90;;
26774;SDS011;14362;51.902;7.626;2022-08-14T08:09:32;8.88;;;7.07;;
26774;SDS011;14362;51.902;7.626;2022-08-14T08:13:36;7.55;;;6.95;;
26774;SDS011;14362;51.902;7.626;2022-08-14T08:17:41;7.90;;;7.10;;
26774;SDS011;14362;51.902;7.626;2022-08-14T08:21:43;7.35;;;6.72;;
26774;SDS011;14362;51.902;7.626;2022-08-14T08:25:48;7.57;;;6.88;;
26774;SDS011;14362;51.902;7.626;2022-08-14T08:29:50;7.93;;;7.22;;
26774;SDS011;14362;51.902;7.626;2022-08-14T08:34:03;8.23;;;7.18;;
26774;SDS011;14362;51.902;7.626;2022-08-14T08:42:11;8.93;;;6.80;;
26774;SDS011;14362;51.902;7.626;2022-08-14T08:46:13;7.43;;;6.82;;
26774;SDS011;14362;51.902;7.626;2022-08-14T08:50:20;7.38;;;6.68;;
26774;SDS011;14362;51.902;7.626;2022-08-14T08:54:25;7.40;;;6.80;;
26774;SDS011;14362;51.902;7.626;2022-08-14T08:58:28;7.60;;;6.80;;
26774;SDS011;14362;51.902;7.626;2022-08-14T09:02:29;7.07;;;6.40;;
26774;SDS011;14362;51.902;7.626;2022-08-14T09:06:41;6.90;;;6.15;;
26774;SDS011;14362;51.902;7.626;2022-08-14T09:10:44;6.93;;;6.30;;
26774;SDS011;14362;51.902;7.626;2022-08-14T09:14:48;10.52;;;7.47;;
26774;SDS011;14362;51.902;7.626;2022-08-14T09:18:52;7.32;;;6.60;;
26774;SDS011;14362;51.902;7.626;2022-08-14T09:22:55;8.23;;;6.75;;
26774;SDS011;14362;51.902;7.626;2022-08-14T09:26:58;6.55;;;5.95;;
26774;SDS011;14362;51.902;7.626;2022-08-14T09:31:01;8.95;;;6.45;;
26774;SDS011;14362;51.902;7.626;2022-08-14T09:35:07;6.47;;;5.88;;
26774;SDS011;14362;51.902;7.626;2022-08-14T09:39:19;6.47;;;5.87;;
26774;SDS011;14362;51.902;7.626;2022-08-14T09:43:37;6.80;;;6.13;;
26774;SDS011;14362;51.902;7.626;2022-08-14T09:47:47;5.60;;;5.10;;
26774;SDS011;14362;51.902;7.626;2022-08-14T09:51:50;5.55;;;5.05;;
26774;SDS011;14362;51.902;7.626;2022-08-14T09:55:56;5.65;;;5.25;;
26774;SDS011;14362;51.902;7.626;2022-08-14T10:00:08;6.85;;;5.20;;
26774;SDS011;14362;51.902;7.626;2022-08-14T10:04:19;5.45;;;4.95;;
26774;SDS011;14362;51.902;7.626;2022-08-14T10:08:23;5.40;;;4.82;;
26774;SDS011;14362;51.902;7.626;2022-08-14T10:12:25;5.05;;;4.57;;
26774;SDS011;14362;51.902;7.626;2022-08-14T10:16:41;5.22;;;4.80;;
26774;SDS011;14362;51.902;7.626;2022-08-14T10:20:52;5.22;;;4.70;;
26774;SDS011;14362;51.902;7.626;2022-08-14T10:24:56;4.65;;;4.25;;
26774;SDS011;14362;51.902;7.626;2022-08-14T10:29:03;4.85;;;4.30;;
26774;SDS011;14362;51.902;7.626;2022-08-14T10:33:07;4.57;;;4.28;;
26774;SDS011;14362;51.902;7.626;2022-08-14T10:37:11;4.32;;;3.92;;
26774;SDS011;14362;51.902;7.626;2022-08-14T10:41:15;4.78;;;4.38;;
26774;SDS011;14362;51.902;7.626;2022-08-14T10:45:19;4.95;;;4.45;;
26774;SDS011;14362;51.902;7.626;2022-08-14T10:53:29;5.10;;;4.32;;
26774;SDS011;14362;51.902;7.626;2022-08-14T10:57:44;4.60;;;4.20;;
26774;SDS011;14362;51.902;7.626;2022-08-14T11:05:49;5.00;;;4.60;;
26774;SDS011;14362;51.902;7.626;2022-08-14T11:09:53;5.50;;;5.00;;
26774;SDS011;14362;51.902;7.626;2022-08-14T11:13:56;4.38;;;3.97;;
26774;SDS011;14362;51.902;7.626;2022-08-14T11:17:57;5.28;;;4.30;;
26774;SDS011;14362;51.902;7.626;2022-08-14T11:22:00;4.90;;;4.50;;
26774;SDS011;14362;51.902;7.626;2022-08-14T11:26:03;4.55;;;4.15;;
26774;SDS011;14362;51.902;7.626;2022-08-14T11:30:06;5.00;;;4.07;;
26774;SDS011;14362;51.902;7.626;2022-08-14T11:34:10;4.55;;;4.15;;
26774;SDS011;14362;51.902;7.626;2022-08-14T11:42:22;5.35;;;4.47;;
26774;SDS011;14362;51.902;7.626;2022-08-14T11:46:25;4.55;;;4.15;;
26774;SDS011;14362;51.902;7.626;2022-08-14T11:50:28;4.65;;;4.25;;
26774;SDS011;14362;51.902;7.626;2022-08-14T11:54:31;4.13;;;3.72;;
26774;SDS011;14362;51.902;7.626;2022-08-14T11:58:36;4.90;;;4.03;;
26774;SDS011;14362;51.902;7.626;2022-08-14T12:06:50;4.88;;;4.47;;
26774;SDS011;14362;51.902;7.626;2022-08-14T12:10:55;4.35;;;4.05;;
26774;SDS011;14362;51.902;7.626;2022-08-14T12:14:59;5.10;;;4.63;;
26774;SDS011;14362;51.902;7.626;2022-08-14T12:19:00;5.03;;;4.60;;
26774;SDS011;14362;51.902;7.626;2022-08-14T12:23:02;5.13;;;4.72;;
26774;SDS011;14362;51.902;7.626;2022-08-14T12:27:05;6.72;;;6.00;;
26774;SDS011;14362;51.902;7.626;2022-08-14T12:31:14;6.18;;;5.57;;
26774;SDS011;14362;51.902;7.626;2022-08-14T12:35:18;5.10;;;4.25;;
26774;SDS011;14362;51.902;7.626;2022-08-14T12:39:20;5.45;;;4.13;;
26774;SDS011;14362;51.902;7.626;2022-08-14T12:43:22;4.88;;;4.40;;
26774;SDS011;14362;51.902;7.626;2022-08-14T12:47:25;4.20;;;3.90;;
26774;SDS011;14362;51.902;7.626;2022-08-14T12:51:30;4.68;;;4.22;;
26774;SDS011;14362;51.902;7.626;2022-08-14T12:55:32;4.32;;;3.92;;
26774;SDS011;14362;51.902;7.626;2022-08-14T12:59:35;4.38;;;3.85;;
26774;SDS011;14362;51.902;7.626;2022-08-14T13:03:38;7.50;;;4.28;;
26774;SDS011;14362;51.902;7.626;2022-08-14T13:07:42;4.88;;;4.38;;
26774;SDS011;14362;51.902;7.626;2022-08-14T13:11:44;5.10;;;4.18;;
26774;SDS011;14362;51.902;7.626;2022-08-14T13:15:48;4.55;;;4.22;;
26774;SDS011;14362;51.902;7.626;2022-08-14T13:23:55;5.03;;;4.63;;
26774;SDS011;14362;51.902;7.626;2022-08-14T13:27:57;6.32;;;4.82;;
26774;SDS011;14362;51.902;7.626;2022-08-14T13:31:59;5.57;;;4.75;;
26774;SDS011;14362;51.902;7.626;2022-08-14T13:36:03;5.00;;;4.47;;
26774;SDS011;14362;51.902;7.626;2022-08-14T13:40:05;5.15;;;4.75;;
26774;SDS011;14362;51.902;7.626;2022-08-14T13:44:07;5.20;;;4.75;;
26774;SDS011;14362;51.902;7.626;2022-08-14T13:48:10;5.07;;;4.65;;
26774;SDS011;14362;51.902;7.626;2022-08-14T13:52:13;4.75;;;4.25;;
26774;SDS011;14362;51.902;7.626;2022-08-14T13:56:17;5.22;;;4.82;;
26774;SDS011;14362;51.902;7.626;2022-08-14T14:00:19;7.38;;;6.65;;
26774;SDS011;14362;51.902;7.626;2022-08-14T14:04:22;5.80;;;4.47;;
26774;SDS011;14362;51.902;7.626;2022-08-14T14:08:27;5.70;;;4.60;;
26774;SDS011;14362;51.902;7.626;2022-08-14T14:12:32;5.57;;;4.95;;
26774;SDS011;14362;51.902;7.626;2022-08-14T14:16:35;4.80;;;4.32;;
26774;SDS011;14362;51.902;7.626;2022-08-14T14:20:37;5.60;;;5.20;;
26774;SDS011;14362;51.902;7.626;2022-08-14T14:24:40;4.70;;;4.30;;
26774;SDS011;14362;51.902;7.626;2022-08-14T14:28:42;5.18;;;4.60;;
26774;SDS011;14362;51.902;7.626;2022-08-14T14:32:49;4.55;;;4.25;;
26774;SDS011;14362;51.902;7.626;2022-08-14T14:36:52;5.20;;;4.80;;
26774;SDS011;14362;51.902;7.626;2022-08-14T14:40:56;4.60;;;4.20;;
26774;SDS011;14362;51.902;7.626;2022-08-14T14:45:01;4.70;;;4.40;;
26774;SDS011;14362;51.902;7.626;2022-08-14T14:49:05;4.78;;;4.38;;
26774;SDS011;14362;51.902;7.626;2022-08-14T14:53:10;4.95;;;4.55;;
26774;SDS011;14362;51.902;7.626;2022-08-14T14:57:12;4.72;;;4.32;;
26774;SDS011;14362;51.902;7.626;2022-08-14T15:01:14;6.10;;;4.32;;
26774;SDS011;14362;51.902;7.626;2022-08-14T15:05:22;4.55;;;4.15;;
26774;SDS011;14362;51.902;7.626;2022-08-14T15:09:25;5.77;;;4.47;;
26774;SDS011;14362;51.902;7.626;2022-08-14T15:13:28;4.38;;;4.00;;
26774;SDS011;14362;51.902;7.626;2022-08-14T15:17:29;4.70;;;4.35;;
26774;SDS011;14362;51.902;7.626;2022-08-14T15:21:35;4.22;;;3.83;;
26774;SDS011;14362;51.902;7.626;2022-08-14T15:25:37;7.38;;;4.53;;
26774;SDS011;14362;51.902;7.626;2022-08-14T15:29:39;4.57;;;4.18;;
26774;SDS011;14362;51.902;7.626;2022-08-14T15:33:41;4.40;;;4.00;;
26774;SDS011;14362;51.902;7.626;2022-08-14T15:38:00;4.57;;;4.18;;
26774;SDS011;14362;51.902;7.626;2022-08-14T15:42:07;4.43;;;4.05;;
26774;SDS011;14362;51.902;7.626;2022-08-14T15:46:11;4.90;;;4.50;;
26774;SDS011;14362;51.902;7.626;2022-08-14T15:50:15;4.60;;;4.20;;
26774;SDS011;14362;51.902;7.626;2022-08-14T15:54:16;5.28;;;4.88;;
26774;SDS011;14362;51.902;7.626;2022-08-14T15:58:18;4.30;;;4.00;;
26774;SDS011;14362;51.902;7.626;2022-08-14T16:02:21;4.53;;;4.13;;
26774;SDS011;14362;51.902;7.626;2022-08-14T16:06:24;4.95;;;4.25;;
26774;SDS011;14362;51.902;7.626;2022-08-14T16:10:27;4.40;;;4.00;;
26774;SDS011;14362;51.902;7.626;2022-08-14T16:14:29;4.88;;;4.47;;
26774;SDS011;14362;51.902;7.626;2022-08-14T16:18:34;4.53;;;4.13;;
26774;SDS011;14362;51.902;7.626;2022-08-14T16:22:39;4.60;;;4.20;;
26774;SDS011;14362;51.902;7.626;2022-08-14T16:26:41;4.28;;;3.88;;
26774;SDS011;14362;51.902;7.626;2022-08-14T16:30:42;4.45;;;4.05;;
26774;SDS011;14362;51.902;7.626;2022-08-14T16:34:49;4.30;;;4.00;;
26774;SDS011;14362;51.902;7.626;2022-08-14T16:38:51;5.07;;;3.90;;
26774;SDS011;14362;51.902;7.626;2022-08-14T16:42:53;4.40;;;4.10;;
26774;SDS011;14362;51.902;7.626;2022-08-14T16:46:57;4.20;;;3.90;;
26774;SDS011;14362;51.902;7.626;2022-08-14T16:51:03;4.18;;;3.88;;
26774;SDS011;14362;51.902;7.626;2022-08-14T16:55:05;4.68;;;3.90;;
26774;SDS011;14362;51.902;7.626;2022-08-14T16:59:09;4.25;;;3.85;;
26774;SDS011;14362;51.902;7.626;2022-08-14T17:03:12;4.30;;;3.90;;
26774;SDS011;14362;51.902;7.626;2022-08-14T17:07:14;5.18;;;4.68;;
26774;SDS011;14362;51.902;7.626;2022-08-14T17:11:16;3.77;;;3.47;;
26774;SDS011;14362;51.902;7.626;2022-08-14T17:15:17;4.22;;;3.92;;
26774;SDS011;14362;51.902;7.626;2022-08-14T17:19:19;4.63;;;4.22;;
26774;SDS011;14362;51.902;7.626;2022-08-14T17:23:23;17.05;;;4.43;;
26774;SDS011;14362;51.902;7.626;2022-08-14T17:27:24;4.27;;;3.97;;
26774;SDS011;14362;51.902;7.626;2022-08-14T17:31:29;4.18;;;3.85;;
26774;SDS011;14362;51.902;7.626;2022-08-14T17:35:31;4.15;;;3.85;;
26774;SDS011;14362;51.902;7.626;2022-08-14T17:39:34;4.55;;;4.15;;
26774;SDS011;14362;51.902;7.626;2022-08-14T17:43:36;6.07;;;5.53;;
26774;SDS011;14362;51.902;7.626;2022-08-14T17:47:39;4.20;;;3.90;;
26774;SDS011;14362;51.902;7.626;2022-08-14T17:51:51;4.70;;;4.30;;
26774;SDS011;14362;51.902;7.626;2022-08-14T17:56:02;5.13;;;4.10;;
26774;SDS011;14362;51.902;7.626;2022-08-14T18:00:04;6.07;;;4.13;;
26774;SDS011;14362;51.902;7.626;2022-08-14T18:04:08;5.28;;;4.35;;
26774;SDS011;14362;51.902;7.626;2022-08-14T18:08:15;4.30;;;3.80;;
26774;SDS011;14362;51.902;7.626;2022-08-14T18:12:19;4.47;;;4.07;;
26774;SDS011;14362;51.902;7.626;2022-08-14T18:16:21;4.60;;;4.20;;
26774;SDS011;14362;51.902;7.626;2022-08-14T18:20:23;4.57;;;4.18;;
26774;SDS011;14362;51.902;7.626;2022-08-14T18:24:26;5.53;;;4.40;;
26774;SDS011;14362;51.902;7.626;2022-08-14T18:28:31;4.43;;;4.03;;
26774;SDS011;14362;51.902;7.626;2022-08-14T18:32:37;4.22;;;3.90;;
26774;SDS011;14362;51.902;7.626;2022-08-14T18:36:44;4.50;;;4.10;;
26774;SDS011;14362;51.902;7.626;2022-08-14T18:40:48;4.82;;;4.43;;
26774;SDS011;14362;51.902;7.626;2022-08-14T18:45:05;5.53;;;4.50;;
26774;SDS011;14362;51.902;7.626;2022-08-14T18:49:12;4.55;;;4.13;;
26774;SDS011;14362;51.902;7.626;2022-08-14T18:53:14;4.65;;;4.25;;
26774;SDS011;14362;51.902;7.626;2022-08-14T18:57:16;5.30;;;4.80;;
26774;SDS011;14362;51.902;7.626;2022-08-14T19:01:23;5.07;;;4.68;;
26774;SDS011;14362;51.902;7.626;2022-08-14T19:09:58;5.70;;;5.20;;
26774;SDS011;14362;51.902;7.626;2022-08-14T19:14:00;5.30;;;4.80;;
26774;SDS011;14362;51.902;7.626;2022-08-14T19:22:27;7.47;;;5.20;;
26774;SDS011;14362;51.902;7.626;2022-08-14T19:26:29;5.38;;;4.00;;
26774;SDS011;14362;51.902;7.626;2022-08-14T19:30:30;4.35;;;3.95;;
26774;SDS011;14362;51.902;7.626;2022-08-14T19:34:34;4.95;;;4.30;;
26774;SDS011;14362;51.902;7.626;2022-08-14T19:38:48;7.10;;;4.90;;
26774;SDS011;14362;51.902;7.626;2022-08-14T19:42:54;28.17;;;9.15;;
26774;SDS011;14362;51.902;7.626;2022-08-14T19:46:57;21.40;;;8.35;;
26774;SDS011;14362;51.902;7.626;2022-08-14T19:51:00;10.40;;;6.18;;
26774;SDS011;14362;51.902;7.626;2022-08-14T19:55:12;8.80;;;5.88;;
26774;SDS011;14362;51.902;7.626;2022-08-14T19:59:15;5.38;;;4.85;;
26774;SDS011;14362;51.902;7.626;2022-08-14T20:03:18;5.93;;;5.27;;
26774;SDS011;14362;51.902;7.626;2022-08-14T20:07:27;10.32;;;5.47;;
26774;SDS011;14362;51.902;7.626;2022-08-14T20:11:31;10.50;;;6.65;;
26774;SDS011;14362;51.902;7.626;2022-08-14T20:15:35;7.43;;;6.47;;
26774;SDS011;14362;51.902;7.626;2022-08-14T20:19:38;8.00;;;6.60;;
26774;SDS011;14362;51.902;7.626;2022-08-14T20:23:41;8.38;;;6.55;;
26774;SDS011;14362;51.902;7.626;2022-08-14T20:27:43;7.25;;;6.47;;
26774;SDS011;14362;51.902;7.626;2022-08-14T20:31:46;8.37;;;7.43;;
26774;SDS011;14362;51.902;7.626;2022-08-14T20:35:48;7.18;;;6.47;;
26774;SDS011;14362;51.902;7.626;2022-08-14T20:39:52;8.10;;;6.93;;
26774;SDS011;14362;51.902;7.626;2022-08-14T20:43:55;8.73;;;7.50;;
26774;SDS011;14362;51.902;7.626;2022-08-14T20:48:16;9.18;;;7.90;;
26774;SDS011;14362;51.902;7.626;2022-08-14T20:52:19;8.32;;;7.53;;
26774;SDS011;14362;51.902;7.626;2022-08-14T20:56:32;10.02;;;7.68;;
26774;SDS011;14362;51.902;7.626;2022-08-14T21:00:36;9.93;;;8.20;;
26774;SDS011;14362;51.902;7.626;2022-08-14T21:04:50;13.32;;;8.32;;
26774;SDS011;14362;51.902;7.626;2022-08-14T21:08:54;9.48;;;8.55;;
26774;SDS011;14362;51.902;7.626;2022-08-14T21:12:59;9.20;;;8.35;;
26774;SDS011;14362;51.902;7.626;2022-08-14T21:17:01;9.38;;;8.45;;
26774;SDS011;14362;51.902;7.626;2022-08-14T21:21:05;9.23;;;8.32;;
26774;SDS011;14362;51.902;7.626;2022-08-14T21:25:09;9.30;;;8.30;;
26774;SDS011;14362;51.902;7.626;2022-08-14T21:29:11;9.70;;;8.38;;
26774;SDS011;14362;51.902;7.626;2022-08-14T21:33:13;8.68;;;7.88;;
26774;SDS011;14362;51.902;7.626;2022-08-14T21:37:16;10.50;;;9.32;;
26774;SDS011;14362;51.902;7.626;2022-08-14T21:41:17;10.20;;;8.40;;
26774;SDS011;14362;51.902;7.626;2022-08-14T21:45:26;10.35;;;9.35;;
26774;SDS011;14362;51.902;7.626;2022-08-14T21:49:30;10.00;;;9.00;;
26774;SDS011;14362;51.902;7.626;2022-08-14T21:53:34;10.13;;;9.15;;
26774;SDS011;14362;51.902;7.626;2022-08-14T21:57:37;12.27;;;9.45;;
26774;SDS011;14362;51.902;7.626;2022-08-14T22:01:39;10.25;;;9.25;;
26774;SDS011;14362;51.902;7.626;2022-08-14T22:05:42;11.15;;;9.57;;
26774;SDS011;14362;51.902;7.626;2022-08-14T22:09:46;11.25;;;10.15;;
26774;SDS011;14362;51.902;7.626;2022-08-14T22:13:47;10.95;;;9.38;;
26774;SDS011;14362;51.902;7.626;2022-08-14T22:17:50;10.75;;;9.75;;
26774;SDS011;14362;51.902;7.626;2022-08-14T22:21:52;11.27;;;10.23;;
26774;SDS011;14362;51.902;7.626;2022-08-14T22:25:56;10.90;;;9.25;;
26774;SDS011;14362;51.902;7.626;2022-08-14T22:29:58;10.88;;;9.77;;
26774;SDS011;14362;51.902;7.626;2022-08-14T22:34:01;10.45;;;9.38;;
26774;SDS011;14362;51.902;7.626;2022-08-14T22:38:04;10.57;;;9.68;;
26774;SDS011;14362;51.902;7.626;2022-08-14T22:42:07;10.82;;;9.85;;
26774;SDS011;14362;51.902;7.626;2022-08-14T22:46:09;12.07;;;10.98;;
26774;SDS011;14362;51.902;7.626;2022-08-14T22:50:10;11.68;;;10.52;;
26774;SDS011;14362;51.902;7.626;2022-08-14T22:54:12;12.82;;;11.57;;
26774;SDS011;14362;51.902;7.626;2022-08-14T22:58:15;11.32;;;10.20;;
26774;SDS011;14362;51.902;7.626;2022-08-14T23:02:18;11.60;;;10.40;;
26774;SDS011;14362;51.902;7.626;2022-08-14T23:06:23;11.13;;;9.80;;
26774;SDS011;14362;51.902;7.626;2022-08-14T23:10:24;12.02;;;10.82;;
26774;SDS011;14362;51.902;7.626;2022-08-14T23:14:27;12.15;;;10.88;;
26774;SDS011;14362;51.902;7.626;2022-08-14T23:18:29;11.60;;;10.57;;
26774;SDS011;14362;51.902;7.626;2022-08-14T23:22:30;12.43;;;10.88;;
26774;SDS011;14362;51.902;7.626;2022-08-14T23:26:33;12.40;;;11.20;;
26774;SDS011;14362;51.902;7.626;2022-08-14T23:30:36;13.70;;;10.25;;
26774;SDS011;14362;51.902;7.626;2022-08-14T23:34:38;11.93;;;10.82;;
26774;SDS011;14362;51.902;7.626;2022-08-14T23:38:39;12.23;;;10.90;;
26774;SDS011;14362;51.902;7.626;2022-08-14T23:42:47;10.93;;;9.90;;
26774;SDS011;14362;51.902;7.626;2022-08-14T23:46:57;11.82;;;10.75;;
26774;SDS011;14362;51.902;7.626;2022-08-14T23:50:59;12.68;;;11.40;;
26774;SDS011;14362;51.902;7.626;2022-08-14T23:55:02;10.90;;;10.00;;
26774;SDS011;14362;51.902;7.626;2022-08-14T23:59:04;11.73;;;10.68;;
